Custom file does not exist C:\wdisplay\webfiles\testtags.txt Estación Meteorológica - Informe de Metar cercanos
Meteopozuelo

Informes METAR próximos a MeteoPozuelo

 

LEVS - Cuatro Vientos (Madrid) España
Actualización: 01/07/2022 01:30
Despejado
Despejado
 Viento del varies
Viento: varies 9 km/h
Temperatura: 20°C
Punto de Rocío: 7°C
Humedad: 43%
Barómetro: 1017 hPa
Resumen: Despejado
Visibility: greater than 10 km
2022/06/30 23:30 LEVS 302330Z AUTO VRB05KT CAVOK 20/07 Q1017
LEGT - Getafe (Madrid ) España
Actualización: 30/06/2022 20:00
NOT Current
Despejado
Despejado
 Viento del NO
Viento: NO 19 km/h
Temperatura: 29°C
Punto de Rocío: 5°C
Humedad: 22%
Barómetro: 1013 hPa
Resumen: Despejado
Visibility: greater than 10 km
2022/06/30 18:00 LEGT 301800Z 31010KT 280V340 CAVOK 29/05 Q1013
 
LEMD - Barajas (Madrid) España
Actualización: 01/07/2022 01:30
Despejado
Despejado
 Viento del ENE
Viento: ENE 17 km/h, Racha: 39 km/h
Temperatura: 19°C
Punto de Rocío: 8°C
Humedad: 49%
Barómetro: 1017 hPa
Resumen: Despejado
Visibility: greater than 10 km
2022/06/30 23:30 LEMD 302330Z 06009G21KT 010V110 CAVOK 19/08 Q1017 NOSIG
LETO - Torrejon de Ardoz (Madrid) España
Actualización: 01/07/2022 01:30
Despejado
Despejado
 Viento del NE
Viento: NE 26 km/h
Temperatura: 18°C
Punto de Rocío: 7°C
Humedad: 49%
Barómetro: 1017 hPa
Resumen: Despejado
Visibility: greater than 10 km
2022/06/30 23:30 LETO 302330Z 05014KT CAVOK 18/07 Q1017 NOSIG
 
LECV - Colmenar Viejo (Madrid)
Actualización: 30/06/2022 20:00
NOT Current
Few Clouds
Few Clouds
 Viento del ONO
Viento: ONO 15 km/h, Racha: 35 km/h
Temperatura: 24°C
Punto de Rocío: 3°C
Humedad: 25%
Barómetro: 1015 hPa
Clouds: Few Clouds
Visibility: 10 km
Cloud details: Few Clouds 1829 m
2022/06/30 18:00 LECV 301800Z 30008G19KT 230V010 9999 FEW060 24/03 Q1015